sensor_id;sensor_type;location;lat;lon;timestamp;temperature;humidity
67077;DHT22;53991;46.364;17.008;2022-09-21T00:00:27;7.10;99.90
67077;DHT22;53991;46.364;17.008;2022-09-21T00:03:29;4.70;99.90
67077;DHT22;53991;46.364;17.008;2022-09-21T00:06:32;4.70;99.90
67077;DHT22;53991;46.364;17.008;2022-09-21T00:09:34;4.80;99.90
67077;DHT22;53991;46.364;17.008;2022-09-21T00:12:36;4.80;99.90
67077;DHT22;53991;46.364;17.008;2022-09-21T00:15:38;6.40;99.90
67077;DHT22;53991;46.364;17.008;2022-09-21T00:21:43;4.60;99.90
67077;DHT22;53991;46.364;17.008;2022-09-21T00:24:44;4.70;99.90
67077;DHT22;53991;46.364;17.008;2022-09-21T00:27:46;4.60;99.90
67077;DHT22;53991;46.364;17.008;2022-09-21T00:33:51;4.70;99.90
67077;DHT22;53991;46.364;17.008;2022-09-21T00:36:53;4.70;99.90
67077;DHT22;53991;46.364;17.008;2022-09-21T00:39:55;4.70;99.90
67077;DHT22;53991;46.364;17.008;2022-09-21T00:43:14;4.70;99.90
67077;DHT22;53991;46.364;17.008;2022-09-21T00:46:22;4.70;99.90
67077;DHT22;53991;46.364;17.008;2022-09-21T00:49:26;4.60;99.90
67077;DHT22;53991;46.364;17.008;2022-09-21T00:52:29;4.60;99.90
67077;DHT22;53991;46.364;17.008;2022-09-21T00:55:34;4.60;99.90
67077;DHT22;53991;46.364;17.008;2022-09-21T00:58:46;4.50;99.90
67077;DHT22;53991;46.364;17.008;2022-09-21T01:01:48;4.30;99.90
67077;DHT22;53991;46.364;17.008;2022-09-21T01:04:52;4.30;99.90
67077;DHT22;53991;46.364;17.008;2022-09-21T01:07:55;4.40;99.90
67077;DHT22;53991;46.364;17.008;2022-09-21T01:17:50;4.40;99.90
67077;DHT22;53991;46.364;17.008;2022-09-21T01:27:47;4.20;99.90
67077;DHT22;53991;46.364;17.008;2022-09-21T01:30:56;4.20;99.90
67077;DHT22;53991;46.364;17.008;2022-09-21T01:34:06;5.80;99.90
67077;DHT22;53991;46.364;17.008;2022-09-21T01:37:23;6.70;99.90
67077;DHT22;53991;46.364;17.008;2022-09-21T01:40:40;4.20;99.90
67077;DHT22;53991;46.364;17.008;2022-09-21T01:43:51;4.10;99.90
67077;DHT22;53991;46.364;17.008;2022-09-21T01:46:55;7.60;99.90
67077;DHT22;53991;46.364;17.008;2022-09-21T01:50:00;4.10;99.90
67077;DHT22;53991;46.364;17.008;2022-09-21T01:56:11;4.00;99.90
67077;DHT22;53991;46.364;17.008;2022-09-21T01:59:25;4.20;99.90
67077;DHT22;53991;46.364;17.008;2022-09-21T02:02:46;4.20;99.90
67077;DHT22;53991;46.364;17.008;2022-09-21T02:05:49;4.20;99.90
67077;DHT22;53991;46.364;17.008;2022-09-21T02:08:52;4.10;99.90
67077;DHT22;53991;46.364;17.008;2022-09-21T02:11:54;4.20;99.90
67077;DHT22;53991;46.364;17.008;2022-09-21T02:14:56;4.10;99.90
67077;DHT22;53991;46.364;17.008;2022-09-21T02:18:08;4.10;99.90
67077;DHT22;53991;46.364;17.008;2022-09-21T02:22:10;4.10;99.90
67077;DHT22;53991;46.364;17.008;2022-09-21T02:25:06;4.10;99.90
67077;DHT22;53991;46.364;17.008;2022-09-21T02:28:29;3.80;99.90
67077;DHT22;53991;46.364;17.008;2022-09-21T02:31:58;3.70;99.90
67077;DHT22;53991;46.364;17.008;2022-09-21T02:38:51;4.00;99.90
67077;DHT22;53991;46.364;17.008;2022-09-21T02:42:02;4.00;99.90
67077;DHT22;53991;46.364;17.008;2022-09-21T02:45:17;3.90;99.90
67077;DHT22;53991;46.364;17.008;2022-09-21T02:48:27;3.90;99.90
67077;DHT22;53991;46.364;17.008;2022-09-21T02:51:35;3.80;99.90
67077;DHT22;53991;46.364;17.008;2022-09-21T02:54:39;3.80;99.90
67077;DHT22;53991;46.364;17.008;2022-09-21T02:57:42;3.80;99.90
67077;DHT22;53991;46.364;17.008;2022-09-21T03:00:44;3.70;99.90
67077;DHT22;53991;46.364;17.008;2022-09-21T03:03:46;3.70;99.90
67077;DHT22;53991;46.364;17.008;2022-09-21T03:06:48;3.90;99.90
67077;DHT22;53991;46.364;17.008;2022-09-21T03:09:50;5.40;99.90
67077;DHT22;53991;46.364;17.008;2022-09-21T03:12:55;3.60;99.90
67077;DHT22;53991;46.364;17.008;2022-09-21T03:16:03;3.60;99.90
67077;DHT22;53991;46.364;17.008;2022-09-21T03:19:05;3.60;99.90
67077;DHT22;53991;46.364;17.008;2022-09-21T03:22:07;6.30;99.90
67077;DHT22;53991;46.364;17.008;2022-09-21T03:28:12;3.60;99.90
67077;DHT22;53991;46.364;17.008;2022-09-21T03:31:14;3.50;99.90
67077;DHT22;53991;46.364;17.008;2022-09-21T03:34:16;3.50;99.90
67077;DHT22;53991;46.364;17.008;2022-09-21T03:37:18;3.60;99.90
67077;DHT22;53991;46.364;17.008;2022-09-21T03:40:20;3.50;99.90
67077;DHT22;53991;46.364;17.008;2022-09-21T03:43:22;3.50;99.90
67077;DHT22;53991;46.364;17.008;2022-09-21T03:46:24;3.40;99.90
67077;DHT22;53991;46.364;17.008;2022-09-21T03:49:26;3.30;99.90
67077;DHT22;53991;46.364;17.008;2022-09-21T03:52:28;5.20;99.90
67077;DHT22;53991;46.364;17.008;2022-09-21T03:55:30;3.40;99.90
67077;DHT22;53991;46.364;17.008;2022-09-21T03:58:32;3.50;99.90
67077;DHT22;53991;46.364;17.008;2022-09-21T04:01:33;3.60;99.90
67077;DHT22;53991;46.364;17.008;2022-09-21T04:04:35;3.70;99.90
67077;DHT22;53991;46.364;17.008;2022-09-21T04:07:37;3.70;99.90
67077;DHT22;53991;46.364;17.008;2022-09-21T04:10:39;3.50;99.90
67077;DHT22;53991;46.364;17.008;2022-09-21T04:13:41;3.40;99.90
67077;DHT22;53991;46.364;17.008;2022-09-21T04:16:43;3.30;99.90
67077;DHT22;53991;46.364;17.008;2022-09-21T04:19:45;3.20;99.90
67077;DHT22;53991;46.364;17.008;2022-09-21T04:22:47;3.30;99.90
67077;DHT22;53991;46.364;17.008;2022-09-21T04:25:49;3.40;99.90
67077;DHT22;53991;46.364;17.008;2022-09-21T04:28:52;3.30;99.90
67077;DHT22;53991;46.364;17.008;2022-09-21T04:31:54;3.20;99.90
67077;DHT22;53991;46.364;17.008;2022-09-21T04:34:56;3.30;99.90
67077;DHT22;53991;46.364;17.008;2022-09-21T04:37:58;6.80;99.90
67077;DHT22;53991;46.364;17.008;2022-09-21T04:40:59;4.10;99.90
67077;DHT22;53991;46.364;17.008;2022-09-21T04:44:01;3.50;99.90
67077;DHT22;53991;46.364;17.008;2022-09-21T04:47:03;3.50;99.90
67077;DHT22;53991;46.364;17.008;2022-09-21T04:50:06;3.40;99.90
67077;DHT22;53991;46.364;17.008;2022-09-21T04:53:08;3.50;99.90
67077;DHT22;53991;46.364;17.008;2022-09-21T04:56:13;3.60;99.90
67077;DHT22;53991;46.364;17.008;2022-09-21T05:02:17;3.60;99.90
67077;DHT22;53991;46.364;17.008;2022-09-21T05:05:19;5.90;99.90
67077;DHT22;53991;46.364;17.008;2022-09-21T05:08:22;3.70;99.90
67077;DHT22;53991;46.364;17.008;2022-09-21T05:11:24;3.80;99.90
67077;DHT22;53991;46.364;17.008;2022-09-21T05:14:26;3.80;99.90
67077;DHT22;53991;46.364;17.008;2022-09-21T05:17:28;3.90;99.90
67077;DHT22;53991;46.364;17.008;2022-09-21T05:20:30;6.70;99.90
67077;DHT22;53991;46.364;17.008;2022-09-21T05:23:33;3.80;99.90
67077;DHT22;53991;46.364;17.008;2022-09-21T05:26:34;3.80;99.90
67077;DHT22;53991;46.364;17.008;2022-09-21T05:29:38;4.00;99.90
67077;DHT22;53991;46.364;17.008;2022-09-21T05:32:48;4.20;99.90
67077;DHT22;53991;46.364;17.008;2022-09-21T05:39:14;4.30;99.90
67077;DHT22;53991;46.364;17.008;2022-09-21T05:42:17;4.50;99.90
67077;DHT22;53991;46.364;17.008;2022-09-21T05:45:19;4.50;99.90
67077;DHT22;53991;46.364;17.008;2022-09-21T05:48:36;5.00;99.90
67077;DHT22;53991;46.364;17.008;2022-09-21T05:51:55;4.90;99.90
67077;DHT22;53991;46.364;17.008;2022-09-21T06:05:25;5.70;99.90
67077;DHT22;53991;46.364;17.008;2022-09-21T06:08:27;5.60;99.90
67077;DHT22;53991;46.364;17.008;2022-09-21T06:11:29;5.60;99.90
67077;DHT22;53991;46.364;17.008;2022-09-21T06:17:33;6.00;99.90
67077;DHT22;53991;46.364;17.008;2022-09-21T06:20:35;6.10;99.90
67077;DHT22;53991;46.364;17.008;2022-09-21T06:23:37;6.20;99.90
67077;DHT22;53991;46.364;17.008;2022-09-21T06:26:39;6.40;99.90
67077;DHT22;53991;46.364;17.008;2022-09-21T06:32:43;6.70;99.90
67077;DHT22;53991;46.364;17.008;2022-09-21T06:35:56;6.80;99.90
67077;DHT22;53991;46.364;17.008;2022-09-21T06:38:58;7.20;99.90
67077;DHT22;53991;46.364;17.008;2022-09-21T06:42:00;7.40;99.90
67077;DHT22;53991;46.364;17.008;2022-09-21T06:48:04;7.70;99.90
67077;DHT22;53991;46.364;17.008;2022-09-21T06:54:09;8.10;99.90
67077;DHT22;53991;46.364;17.008;2022-09-21T06:57:11;8.30;99.90
67077;DHT22;53991;46.364;17.008;2022-09-21T07:00:13;8.60;99.90
67077;DHT22;53991;46.364;17.008;2022-09-21T07:03:15;8.70;99.90
67077;DHT22;53991;46.364;17.008;2022-09-21T07:12:42;9.20;99.90
67077;DHT22;53991;46.364;17.008;2022-09-21T07:15:44;9.40;99.90
67077;DHT22;53991;46.364;17.008;2022-09-21T07:18:49;9.80;99.90
67077;DHT22;53991;46.364;17.008;2022-09-21T07:24:57;11.30;99.90
67077;DHT22;53991;46.364;17.008;2022-09-21T07:27:59;11.90;99.90
67077;DHT22;53991;46.364;17.008;2022-09-21T07:31:09;12.50;99.90
67077;DHT22;53991;46.364;17.008;2022-09-21T07:34:12;12.90;99.90
67077;DHT22;53991;46.364;17.008;2022-09-21T07:43:25;13.70;99.90
67077;DHT22;53991;46.364;17.008;2022-09-21T07:46:27;14.90;99.90
67077;DHT22;53991;46.364;17.008;2022-09-21T07:49:29;16.20;98.90
67077;DHT22;53991;46.364;17.008;2022-09-21T07:55:33;18.10;93.40
67077;DHT22;53991;46.364;17.008;2022-09-21T07:58:36;18.90;91.00
67077;DHT22;53991;46.364;17.008;2022-09-21T08:01:40;18.90;88.80
67077;DHT22;53991;46.364;17.008;2022-09-21T08:04:42;18.90;88.50
67077;DHT22;53991;46.364;17.008;2022-09-21T08:07:44;18.90;83.30
67077;DHT22;53991;46.364;17.008;2022-09-21T08:13:52;19.10;80.80
67077;DHT22;53991;46.364;17.008;2022-09-21T08:16:54;19.40;81.40
67077;DHT22;53991;46.364;17.008;2022-09-21T08:19:56;18.70;80.50
67077;DHT22;53991;46.364;17.008;2022-09-21T08:22:58;18.30;78.90
67077;DHT22;53991;46.364;17.008;2022-09-21T08:26:01;19.00;81.20
67077;DHT22;53991;46.364;17.008;2022-09-21T08:32:05;18.70;76.80
67077;DHT22;53991;46.364;17.008;2022-09-21T08:35:08;19.50;78.70
67077;DHT22;53991;46.364;17.008;2022-09-21T08:38:10;20.30;81.30
67077;DHT22;53991;46.364;17.008;2022-09-21T08:47:50;21.10;74.40
67077;DHT22;53991;46.364;17.008;2022-09-21T08:50:55;22.20;73.00
67077;DHT22;53991;46.364;17.008;2022-09-21T08:54:06;21.20;70.20
67077;DHT22;53991;46.364;17.008;2022-09-21T08:57:15;20.40;68.90
67077;DHT22;53991;46.364;17.008;2022-09-21T09:00:18;20.40;70.00
67077;DHT22;53991;46.364;17.008;2022-09-21T09:03:28;20.60;72.20
67077;DHT22;53991;46.364;17.008;2022-09-21T09:23:25;18.60;71.20
67077;DHT22;53991;46.364;17.008;2022-09-21T09:29:59;20.10;73.90
67077;DHT22;53991;46.364;17.008;2022-09-21T09:33:11;20.00;69.60
67077;DHT22;53991;46.364;17.008;2022-09-21T09:36:16;20.20;68.90
67077;DHT22;53991;46.364;17.008;2022-09-21T09:39:39;21.20;68.20
67077;DHT22;53991;46.364;17.008;2022-09-21T09:53:30;21.90;71.20
67077;DHT22;53991;46.364;17.008;2022-09-21T09:56:32;21.20;65.00
67077;DHT22;53991;46.364;17.008;2022-09-21T09:59:47;20.60;68.20
67077;DHT22;53991;46.364;17.008;2022-09-21T10:02:56;20.90;61.10
67077;DHT22;53991;46.364;17.008;2022-09-21T10:05:59;20.80;60.90
67077;DHT22;53991;46.364;17.008;2022-09-21T10:12:25;21.80;65.80
67077;DHT22;53991;46.364;17.008;2022-09-21T10:15:28;22.00;68.80
67077;DHT22;53991;46.364;17.008;2022-09-21T10:18:56;21.20;60.60
67077;DHT22;53991;46.364;17.008;2022-09-21T10:22:01;20.70;63.20
67077;DHT22;53991;46.364;17.008;2022-09-21T10:25:04;20.60;63.00
67077;DHT22;53991;46.364;17.008;2022-09-21T10:28:11;20.40;65.80
67077;DHT22;53991;46.364;17.008;2022-09-21T10:31:20;18.70;65.70
67077;DHT22;53991;46.364;17.008;2022-09-21T10:34:25;18.70;65.10
67077;DHT22;53991;46.364;17.008;2022-09-21T10:37:30;20.00;67.80
67077;DHT22;53991;46.364;17.008;2022-09-21T10:40:36;20.00;63.70
67077;DHT22;53991;46.364;17.008;2022-09-21T10:43:41;18.70;64.30
67077;DHT22;53991;46.364;17.008;2022-09-21T10:46:46;18.70;65.20
67077;DHT22;53991;46.364;17.008;2022-09-21T10:49:52;19.90;62.80
67077;DHT22;53991;46.364;17.008;2022-09-21T10:53:09;19.90;65.60
67077;DHT22;53991;46.364;17.008;2022-09-21T10:59:36;20.50;63.40
67077;DHT22;53991;46.364;17.008;2022-09-21T11:05:40;21.20;65.20
67077;DHT22;53991;46.364;17.008;2022-09-21T11:08:55;21.70;65.30
67077;DHT22;53991;46.364;17.008;2022-09-21T11:25:42;21.20;60.00
67077;DHT22;53991;46.364;17.008;2022-09-21T11:28:53;19.40;60.70
67077;DHT22;53991;46.364;17.008;2022-09-21T11:42:41;21.60;61.70
67077;DHT22;53991;46.364;17.008;2022-09-21T11:49:51;21.80;63.60
67077;DHT22;53991;46.364;17.008;2022-09-21T12:00:12;22.00;66.80
67077;DHT22;53991;46.364;17.008;2022-09-21T12:03:48;23.00;60.70
67077;DHT22;53991;46.364;17.008;2022-09-21T12:22:31;23.30;59.10
67077;DHT22;53991;46.364;17.008;2022-09-21T12:25:40;23.00;57.50
67077;DHT22;53991;46.364;17.008;2022-09-21T12:28:51;21.70;60.10
67077;DHT22;53991;46.364;17.008;2022-09-21T12:32:18;21.00;58.90
67077;DHT22;53991;46.364;17.008;2022-09-21T12:35:33;20.00;60.10
67077;DHT22;53991;46.364;17.008;2022-09-21T12:38:47;19.20;60.20
67077;DHT22;53991;46.364;17.008;2022-09-21T12:48:36;19.10;65.40
67077;DHT22;53991;46.364;17.008;2022-09-21T12:51:44;21.10;59.00
67077;DHT22;53991;46.364;17.008;2022-09-21T12:58:20;20.60;58.20
67077;DHT22;53991;46.364;17.008;2022-09-21T13:01:35;19.50;62.80
67077;DHT22;53991;46.364;17.008;2022-09-21T13:08:14;18.90;60.10
67077;DHT22;53991;46.364;17.008;2022-09-21T13:11:19;18.50;66.00
67077;DHT22;53991;46.364;17.008;2022-09-21T13:14:24;18.40;65.50
67077;DHT22;53991;46.364;17.008;2022-09-21T13:17:30;18.40;64.70
67077;DHT22;53991;46.364;17.008;2022-09-21T13:20:35;18.10;65.40
67077;DHT22;53991;46.364;17.008;2022-09-21T13:23:38;18.00;65.20
67077;DHT22;53991;46.364;17.008;2022-09-21T13:26:52;19.00;69.90
67077;DHT22;53991;46.364;17.008;2022-09-21T13:30:18;19.90;66.10
67077;DHT22;53991;46.364;17.008;2022-09-21T13:36:33;20.90;62.10
67077;DHT22;53991;46.364;17.008;2022-09-21T13:39:42;21.10;60.80
67077;DHT22;53991;46.364;17.008;2022-09-21T13:42:47;20.50;59.40
67077;DHT22;53991;46.364;17.008;2022-09-21T13:45:54;19.00;60.60
67077;DHT22;53991;46.364;17.008;2022-09-21T13:48:58;18.90;61.20
67077;DHT22;53991;46.364;17.008;2022-09-21T13:55:05;19.10;63.10
67077;DHT22;53991;46.364;17.008;2022-09-21T13:58:21;20.00;66.00
67077;DHT22;53991;46.364;17.008;2022-09-21T14:04:48;20.80;62.30
67077;DHT22;53991;46.364;17.008;2022-09-21T14:11:22;19.80;59.20
67077;DHT22;53991;46.364;17.008;2022-09-21T14:14:37;19.20;61.40
67077;DHT22;53991;46.364;17.008;2022-09-21T14:21:08;18.40;63.40
67077;DHT22;53991;46.364;17.008;2022-09-21T14:24:40;19.90;64.60
67077;DHT22;53991;46.364;17.008;2022-09-21T14:27:43;19.90;64.30
67077;DHT22;53991;46.364;17.008;2022-09-21T14:31:14;20.80;62.00
67077;DHT22;53991;46.364;17.008;2022-09-21T14:34:21;21.50;60.90
67077;DHT22;53991;46.364;17.008;2022-09-21T14:37:31;21.30;60.20
67077;DHT22;53991;46.364;17.008;2022-09-21T14:40:36;21.20;57.90
67077;DHT22;53991;46.364;17.008;2022-09-21T14:43:39;21.30;61.20
67077;DHT22;53991;46.364;17.008;2022-09-21T14:56:18;19.90;62.80
67077;DHT22;53991;46.364;17.008;2022-09-21T15:02:33;20.70;58.00
67077;DHT22;53991;46.364;17.008;2022-09-21T15:05:40;20.60;61.60
67077;DHT22;53991;46.364;17.008;2022-09-21T15:09:02;20.60;61.60
67077;DHT22;53991;46.364;17.008;2022-09-21T15:12:15;20.20;57.40
67077;DHT22;53991;46.364;17.008;2022-09-21T15:18:20;19.00;58.50
67077;DHT22;53991;46.364;17.008;2022-09-21T15:21:26;18.50;60.00
67077;DHT22;53991;46.364;17.008;2022-09-21T15:24:30;18.30;60.10
67077;DHT22;53991;46.364;17.008;2022-09-21T15:27:34;18.60;58.60
67077;DHT22;53991;46.364;17.008;2022-09-21T15:30:41;18.80;60.00
67077;DHT22;53991;46.364;17.008;2022-09-21T15:39:57;16.80;61.70
67077;DHT22;53991;46.364;17.008;2022-09-21T15:43:16;15.60;63.90
67077;DHT22;53991;46.364;17.008;2022-09-21T15:49:23;15.40;69.00
67077;DHT22;53991;46.364;17.008;2022-09-21T15:52:38;15.40;68.10
67077;DHT22;53991;46.364;17.008;2022-09-21T15:55:46;15.30;68.60
67077;DHT22;53991;46.364;17.008;2022-09-21T15:58:48;15.20;73.40
67077;DHT22;53991;46.364;17.008;2022-09-21T16:01:54;15.10;73.20
67077;DHT22;53991;46.364;17.008;2022-09-21T16:04:56;15.10;70.40
67077;DHT22;53991;46.364;17.008;2022-09-21T16:08:13;14.90;73.80
67077;DHT22;53991;46.364;17.008;2022-09-21T16:11:37;14.90;70.90
67077;DHT22;53991;46.364;17.008;2022-09-21T16:14:46;14.70;69.00
67077;DHT22;53991;46.364;17.008;2022-09-21T16:18:02;14.70;69.10
67077;DHT22;53991;46.364;17.008;2022-09-21T16:24:19;14.40;68.20
67077;DHT22;53991;46.364;17.008;2022-09-21T16:27:29;13.90;70.80
67077;DHT22;53991;46.364;17.008;2022-09-21T16:36:55;13.10;87.20
67077;DHT22;53991;46.364;17.008;2022-09-21T16:39:58;12.60;91.50
67077;DHT22;53991;46.364;17.008;2022-09-21T16:52:07;11.80;96.10
67077;DHT22;53991;46.364;17.008;2022-09-21T17:01:17;11.10;99.70
67077;DHT22;53991;46.364;17.008;2022-09-21T17:04:21;10.90;99.90
67077;DHT22;53991;46.364;17.008;2022-09-21T17:07:23;10.80;99.90
67077;DHT22;53991;46.364;17.008;2022-09-21T17:10:31;10.60;99.90
67077;DHT22;53991;46.364;17.008;2022-09-21T17:13:34;10.60;99.90
67077;DHT22;53991;46.364;17.008;2022-09-21T17:19:38;10.30;99.90
67077;DHT22;53991;46.364;17.008;2022-09-21T17:28:45;9.80;99.90
67077;DHT22;53991;46.364;17.008;2022-09-21T17:31:50;9.80;99.90
67077;DHT22;53991;46.364;17.008;2022-09-21T17:38:16;9.60;99.90
67077;DHT22;53991;46.364;17.008;2022-09-21T17:41:26;9.60;99.90
67077;DHT22;53991;46.364;17.008;2022-09-21T17:50:43;9.10;99.90
67077;DHT22;53991;46.364;17.008;2022-09-21T17:53:46;8.90;99.90
67077;DHT22;53991;46.364;17.008;2022-09-21T17:56:53;8.80;99.90
67077;DHT22;53991;46.364;17.008;2022-09-21T18:00:04;8.90;99.90
67077;DHT22;53991;46.364;17.008;2022-09-21T18:03:20;8.80;99.90
67077;DHT22;53991;46.364;17.008;2022-09-21T18:06:22;8.70;99.90
67077;DHT22;53991;46.364;17.008;2022-09-21T18:09:24;8.70;99.90
67077;DHT22;53991;46.364;17.008;2022-09-21T18:19:19;8.40;99.90
67077;DHT22;53991;46.364;17.008;2022-09-21T18:25:31;8.10;99.90
67077;DHT22;53991;46.364;17.008;2022-09-21T18:28:45;8.00;99.90
67077;DHT22;53991;46.364;17.008;2022-09-21T18:38:37;7.70;99.90
67077;DHT22;53991;46.364;17.008;2022-09-21T18:45:07;7.50;99.90
67077;DHT22;53991;46.364;17.008;2022-09-21T18:57:49;7.40;99.90
67077;DHT22;53991;46.364;17.008;2022-09-21T19:03:55;7.50;99.90
67077;DHT22;53991;46.364;17.008;2022-09-21T19:07:07;7.60;99.90
67077;DHT22;53991;46.364;17.008;2022-09-21T19:10:23;7.40;99.90
67077;DHT22;53991;46.364;17.008;2022-09-21T19:13:38;7.40;99.90
67077;DHT22;53991;46.364;17.008;2022-09-21T19:17:05;7.50;99.90
67077;DHT22;53991;46.364;17.008;2022-09-21T19:30:09;7.10;99.90
67077;DHT22;53991;46.364;17.008;2022-09-21T19:33:22;7.20;99.90
67077;DHT22;53991;46.364;17.008;2022-09-21T19:36:46;7.00;99.90
67077;DHT22;53991;46.364;17.008;2022-09-21T19:39:48;6.90;99.90
67077;DHT22;53991;46.364;17.008;2022-09-21T19:52:16;6.60;99.90
67077;DHT22;53991;46.364;17.008;2022-09-21T19:55:20;6.40;99.90
67077;DHT22;53991;46.364;17.008;2022-09-21T19:58:22;6.20;99.90
67077;DHT22;53991;46.364;17.008;2022-09-21T20:01:24;6.30;99.90
67077;DHT22;53991;46.364;17.008;2022-09-21T20:04:38;6.30;99.90
67077;DHT22;53991;46.364;17.008;2022-09-21T20:17:32;6.30;99.90
67077;DHT22;53991;46.364;17.008;2022-09-21T20:20:35;6.30;99.90
67077;DHT22;53991;46.364;17.008;2022-09-21T20:23:37;6.10;99.90
67077;DHT22;53991;46.364;17.008;2022-09-21T20:26:40;6.10;99.90
67077;DHT22;53991;46.364;17.008;2022-09-21T20:29:43;6.10;99.90
67077;DHT22;53991;46.364;17.008;2022-09-21T20:32:51;6.00;99.90
67077;DHT22;53991;46.364;17.008;2022-09-21T20:35:53;6.00;99.90
67077;DHT22;53991;46.364;17.008;2022-09-21T20:38:55;5.90;99.90
67077;DHT22;53991;46.364;17.008;2022-09-21T20:44:59;5.70;99.90
67077;DHT22;53991;46.364;17.008;2022-09-21T20:48:01;5.70;99.90
67077;DHT22;53991;46.364;17.008;2022-09-21T20:51:03;5.60;99.90
67077;DHT22;53991;46.364;17.008;2022-09-21T20:54:05;5.60;99.90
67077;DHT22;53991;46.364;17.008;2022-09-21T21:00:12;5.50;99.90
67077;DHT22;53991;46.364;17.008;2022-09-21T21:03:14;5.50;99.90
67077;DHT22;53991;46.364;17.008;2022-09-21T21:06:17;5.70;99.90
67077;DHT22;53991;46.364;17.008;2022-09-21T21:09:19;5.70;99.90
67077;DHT22;53991;46.364;17.008;2022-09-21T21:12:21;5.70;99.90
67077;DHT22;53991;46.364;17.008;2022-09-21T21:18:25;5.60;99.90
67077;DHT22;53991;46.364;17.008;2022-09-21T21:21:27;5.70;99.90
67077;DHT22;53991;46.364;17.008;2022-09-21T21:24:29;5.60;99.90
67077;DHT22;53991;46.364;17.008;2022-09-21T21:27:31;5.70;99.90
67077;DHT22;53991;46.364;17.008;2022-09-21T22:08:39;4.70;99.90
67077;DHT22;53991;46.364;17.008;2022-09-21T22:11:41;4.50;99.90
67077;DHT22;53991;46.364;17.008;2022-09-21T22:17:45;4.60;99.90
67077;DHT22;53991;46.364;17.008;2022-09-21T22:23:55;4.90;99.90
67077;DHT22;53991;46.364;17.008;2022-09-21T22:26:58;4.90;99.90
67077;DHT22;53991;46.364;17.008;2022-09-21T22:30:00;4.80;99.90
67077;DHT22;53991;46.364;17.008;2022-09-21T22:33:02;4.70;99.90
67077;DHT22;53991;46.364;17.008;2022-09-21T22:45:12;4.70;99.90
67077;DHT22;53991;46.364;17.008;2022-09-21T22:51:17;4.70;99.90
67077;DHT22;53991;46.364;17.008;2022-09-21T22:54:19;4.90;99.90
67077;DHT22;53991;46.364;17.008;2022-09-21T22:57:21;4.90;99.90
67077;DHT22;53991;46.364;17.008;2022-09-21T23:03:25;4.80;99.90
67077;DHT22;53991;46.364;17.008;2022-09-21T23:06:30;4.70;99.90
67077;DHT22;53991;46.364;17.008;2022-09-21T23:09:33;4.70;99.90
67077;DHT22;53991;46.364;17.008;2022-09-21T23:15:37;4.70;99.90
67077;DHT22;53991;46.364;17.008;2022-09-21T23:21:43;4.90;99.90
67077;DHT22;53991;46.364;17.008;2022-09-21T23:24:45;4.90;99.90
67077;DHT22;53991;46.364;17.008;2022-09-21T23:30:49;4.90;99.90
67077;DHT22;53991;46.364;17.008;2022-09-21T23:33:52;4.80;99.90
67077;DHT22;53991;46.364;17.008;2022-09-21T23:39:57;4.80;99.90
67077;DHT22;53991;46.364;17.008;2022-09-21T23:55:08;4.70;99.90
